Dauphin Island, AL (36528)

7:52 AM CDT on August 25, 2016 (GMT -0500)
Dauphin Island | | Change Station

Elev 16 ft 30.25 °N, 88.14 °W | Updated 1 minute ago

Clear
Clear
82.9 °F
Feels Like 95 °F
N
16.0
Wind Variable Wind from NE
Gusts 17.0 mph

Today
High -- | Low -- °F
--% Chance of Precip.
Yesterday
High -- | Low -- °F
Precip. -- in
Pressure 30.13 in
Visibility 10.0 miles
Clouds Clear
Heat Index 95 °F
Dew Point 80 °F
Humidity 92%
Rainfall 0.00 in
Snow Depth Not available.
6:25 AM 7:22 PM
Last Quarter, 46% visible
METAR KCQF 251235Z AUTO 04003KT 10SM CLR 25/25 A3013 RMK AO2
Pressure 30.13 in
Visibility 10.0 miles
Clouds Clear
Heat Index 95 °F
Dew Point 80 °F
Humidity 92%
Rainfall 0.00 in
Snow Depth Not available.
6:25 AM 7:22 PM
Last Quarter, 46% visible
METAR KCQF 251235Z AUTO 04003KT 10SM CLR 25/25 A3013 RMK AO2

10-Day Weather Forecast

Almanac

Astronomy

Aug. 25, 2016 Rise Set
Actual Time
Civil Twilight
Nautical Twilight
Astronomical Twilight
Moon
Length of Visible Light
Length of Day
Tomorrow will be .
, % of the Moon is Illuminated

Today's Extremes

State Highs State Lows

Community

WunderPhotos

Upload Photos

1,934,837 photos uploaded!

WunderBlog® & News

Nearby

Air Quality

  Air Quality AQ Index Pollutant
Not available.

Snow Depth

Station Depth Elevation

Earthquake Activity

City Distance Mag. Time & Date
Minimum magnitude displayed is 2.5.

Coastal Water Temperatures

Place Temperature

Stations

Nearby Weather Stations

Station Location Temp. Windchill Dew Point Humidity Wind Precip. Elev Updated Type
                   

Watches & Warnings

There are currently no watches in effect.